• Join FlightAware (Why Join?)
  • Login
  • US Flag 
07:03AM EDT


 

Airport Tracker/Info


-or-


 

Live Flight TrackerFlight Track Log ✈ EJA898 ✈ 12-Apr-2013 ✈ KRKS - KGJT

Flight Track Log - Related Links

Times and Time Zones

All times are in EDT time to prevent confusion due to time zone crossing. See the EJA898 flight status page for this flight to view local times or setup timezone preferences in your user account.

Time Position Orientation Groundspeed Altitude Reporting Facility
EDT Latitude Longitude Course Direction KTS MPH feet Rate Location/Type
11:04AM 41.5981 -109.0886 176° South 177 204 8,000  Level Denver Center
11:05AM 41.5364 -109.0875 179° South 286 329 11,200 3,060 Climbing Denver Center
11:06AM 41.4539 -109.0381 156° South 333 383 14,400 2,700 Climbing Denver Center
11:07AM 41.3367 -108.9900 163° South 388 447 16,900 1,200 Climbing Denver Center
11:08AM 41.4514 -108.9901 176° South  Level FlightAware Approximate
11:08AM 41.2228 -108.9806 176° South 424 488 17,000  Level Denver Center
11:09AM 41.3668 -108.9817 176° South  Level FlightAware Approximate
11:09AM 41.1050 -108.9711 177° South 438 504 17,000  Level Denver Center
11:10AM 41.2822 -108.9732 176° South  Level FlightAware Approximate
11:10AM 40.9678 -108.9589 176° South 442 509 17,000  Level Denver Center
11:12AM 40.8511 -108.9483 176° South 440 506 17,000  Level Denver Center
11:13AM 40.6994 -108.9344 176° South 433 498 17,000  Level Salt Lake Center
11:14AM 40.5850 -108.9231 176° South 431 496 17,000  Level Salt Lake Center
11:15AM 40.4528 -108.9142 177° South 426 490 17,000  Level Salt Lake Center
11:16AM 40.3592 -108.9039 175° South 424 488 17,000  Level Denver Center
11:17AM 40.2275 -108.8942 177° South 424 488 17,000 -540 Level Denver Center
11:18AM 40.1144 -108.8836 176° South 425 489 15,900 -1,140 Descending Denver Center
11:19AM 39.9819 -108.8717 176° South 426 490 14,700 -1,260 Descending Denver Center
11:20AM 39.8717 -108.8625 176° South 419 482 13,300 -1,500 Descending Denver Center
11:21AM 39.7494 -108.8519 176° South 403 464 11,700 -1,020 Descending Denver Center
11:22AM 39.6386 -108.8425 176° South 386 444 11,000 -360 Descending Denver Center
11:23AM 39.5208 -108.8322 176° South 344 396 11,000  Level Denver Center
11:24AM 39.4292 -108.8172 173° South 337 388 11,000 -540 Level Denver Center
11:25AM 39.3475 -108.7406 144° Southeast 341 392 10,000 -900 Descending Denver Center
11:26AM 39.2769 -108.6736 144° Southeast 308 354 9,200 -1,380 Descending Denver Center
11:27AM 39.2150 -108.6033 139° Southeast 278 320 7,200 -1,380 Descending Denver Center
11:28AM 39.1711 -108.5258 126° Southeast 267 307 6,400 -540 Descending Denver Center
11:29AM 39.1333 -108.4658 129° Southeast 206 237 6,000 -660 Descending Denver Center
11:31AM 39.1122 -108.5050 235° Southwest 141 162 5,000 -600 Descending Denver Center
11:32AM 39.1331 -108.5389 308° West 134 154 4,800 -240 Descending Denver Center
11:34AM 39.1224 -108.5267 90° East  Level Estimated
11:41AM 39.1224 -108.5267 90° East  Level Estimated